createdAt,value
2022-08-11T00:00:21.858Z,1.70
2022-08-11T00:02:51.938Z,1.92
2022-08-11T00:05:20.094Z,1.92
2022-08-11T00:07:50.679Z,1.65
2022-08-11T00:10:18.963Z,1.80
2022-08-11T00:12:51.264Z,1.48
2022-08-11T00:15:17.845Z,1.80
2022-08-11T00:17:44.578Z,1.75
2022-08-11T00:20:16.261Z,1.50
2022-08-11T00:22:44.010Z,1.60
2022-08-11T00:25:11.421Z,1.70
2022-08-11T00:27:38.501Z,1.88
2022-08-11T00:30:06.440Z,1.55
2022-08-11T00:32:32.996Z,1.45
2022-08-11T00:35:53.803Z,1.55
2022-08-11T00:37:48.047Z,1.67
2022-08-11T00:40:15.903Z,1.60
2022-08-11T00:42:58.619Z,1.83
2022-08-11T00:45:30.415Z,1.88
2022-08-11T00:48:05.105Z,1.67
2022-08-11T00:50:50.021Z,1.77
2022-08-11T00:53:35.380Z,1.90
2022-08-11T00:56:09.648Z,1.90
2022-08-11T00:58:56.431Z,1.98
2022-08-11T01:01:27.940Z,1.88
2022-08-11T01:04:00.681Z,1.80
2022-08-11T01:06:33.220Z,1.60
2022-08-11T01:09:06.693Z,1.70
2022-08-11T01:11:56.575Z,1.70
2022-08-11T01:14:34.119Z,1.80
2022-08-11T01:17:04.134Z,1.45
2022-08-11T01:20:48.123Z,1.67
2022-08-11T01:22:40.376Z,1.30
2022-08-11T01:25:12.864Z,1.85
2022-08-11T01:27:58.236Z,1.85
2022-08-11T01:30:43.888Z,1.65
2022-08-11T01:33:20.244Z,1.80
2022-08-11T01:35:49.738Z,1.85
2022-08-11T01:38:19.273Z,1.75
2022-08-11T01:40:58.200Z,1.38
2022-08-11T01:44:02.489Z,1.80
2022-08-11T01:46:31.624Z,1.55
2022-08-11T01:50:08.324Z,1.70
2022-08-11T01:52:07.300Z,1.65
2022-08-11T01:54:53.571Z,1.80
2022-08-11T01:57:38.986Z,1.73
2022-08-11T02:00:10.112Z,2.42
2022-08-11T02:02:50.623Z,1.80
2022-08-11T02:05:19.639Z,1.65
2022-08-11T02:07:58.352Z,2.10
2022-08-11T02:10:50.690Z,1.80
2022-08-11T02:13:35.587Z,1.60
2022-08-11T02:16:23.773Z,2.40
2022-08-11T02:19:13.930Z,1.85
2022-08-11T02:22:19.247Z,2.50
2022-08-11T02:24:48.535Z,2.25
2022-08-11T02:27:23.131Z,2.17
2022-08-11T02:29:53.258Z,2.25
2022-08-11T02:32:39.052Z,2.33
2022-08-11T02:35:10.606Z,2.53
2022-08-11T02:37:41.195Z,2.00
2022-08-11T02:40:10.901Z,2.70
2022-08-11T02:42:40.203Z,2.60
2022-08-11T02:45:11.373Z,2.30
2022-08-11T02:48:17.054Z,2.83
2022-08-11T02:50:53.036Z,2.45
2022-08-11T02:53:19.518Z,2.58
2022-08-11T02:55:57.993Z,2.80
2022-08-11T02:58:40.250Z,2.95
2022-08-11T03:01:14.227Z,3.20
2022-08-11T03:03:45.888Z,3.30
2022-08-11T03:06:18.565Z,2.78
2022-08-11T03:09:03.436Z,3.00
2022-08-11T03:11:50.185Z,2.80
2022-08-11T03:14:40.556Z,2.20
2022-08-11T03:17:25.958Z,2.45
2022-08-11T03:20:00.118Z,2.30
2022-08-11T03:22:39.013Z,2.40
2022-08-11T03:25:12.988Z,2.70
2022-08-11T03:27:39.681Z,2.42
2022-08-11T03:30:12.354Z,2.80
2022-08-11T03:33:16.084Z,2.35
2022-08-11T03:35:49.763Z,2.38
2022-08-11T03:38:16.273Z,2.47
2022-08-11T03:41:59.275Z,2.63
2022-08-11T03:44:04.689Z,2.60
2022-08-11T03:46:34.301Z,3.50
2022-08-11T03:49:06.059Z,3.38
2022-08-11T03:51:44.687Z,2.80
2022-08-11T03:54:21.487Z,3.20
2022-08-11T03:57:07.026Z,2.70
2022-08-11T03:59:52.271Z,3.17
2022-08-11T04:02:33.971Z,2.38
2022-08-11T04:05:19.239Z,3.10
2022-08-11T04:08:09.135Z,2.60
2022-08-11T04:10:55.958Z,2.78
2022-08-11T04:13:31.870Z,2.17
2022-08-11T04:16:31.149Z,2.47
2022-08-11T04:19:16.548Z,2.60
2022-08-11T04:22:02.099Z,2.60
2022-08-11T04:24:50.272Z,2.72
2022-08-11T04:27:32.750Z,2.50
2022-08-11T04:30:05.503Z,2.72
2022-08-11T04:32:32.284Z,2.58
2022-08-11T04:35:04.844Z,3.28
2022-08-11T04:37:51.286Z,2.63
2022-08-11T04:40:35.256Z,2.58
2022-08-11T04:43:20.582Z,3.38
2022-08-11T04:45:50.315Z,3.25
2022-08-11T04:48:35.640Z,3.10
2022-08-11T04:51:25.898Z,3.33
2022-08-11T04:54:19.838Z,3.05
2022-08-11T04:57:04.971Z,2.67
2022-08-11T05:00:02.008Z,2.97
2022-08-11T05:02:46.798Z,3.05
2022-08-11T05:05:31.654Z,3.20
2022-08-11T05:08:03.659Z,2.58
2022-08-11T05:10:43.196Z,3.28
2022-08-11T05:13:28.327Z,2.88
2022-08-11T05:16:14.227Z,3.22
2022-08-11T05:19:17.469Z,4.05
2022-08-11T05:22:10.747Z,4.03
2022-08-11T05:25:06.343Z,3.47
2022-08-11T05:28:04.233Z,3.08
2022-08-11T05:30:49.502Z,3.03
2022-08-11T05:33:44.454Z,2.80
2022-08-11T05:36:37.473Z,3.28
2022-08-11T05:39:36.323Z,3.40
2022-08-11T05:42:30.165Z,4.25
2022-08-11T05:45:16.964Z,3.17
2022-08-11T05:48:02.120Z,3.15
2022-08-11T05:50:47.260Z,3.78
2022-08-11T05:53:42.803Z,3.55
2022-08-11T05:56:21.976Z,3.15
2022-08-11T05:58:52.086Z,3.13
2022-08-11T06:01:22.632Z,3.17
2022-08-11T06:04:09.219Z,3.15
2022-08-11T06:06:35.697Z,3.05
2022-08-11T06:09:02.289Z,2.72
2022-08-11T06:11:43.004Z,3.75
2022-08-11T06:14:12.644Z,3.70
2022-08-11T06:16:39.224Z,3.30
2022-08-11T06:19:05.739Z,3.10
2022-08-11T06:21:36.372Z,2.50
2022-08-11T06:24:11.784Z,3.67
2022-08-11T06:26:55.101Z,3.88
2022-08-11T06:29:38.071Z,3.63
2022-08-11T06:32:13.701Z,4.28
2022-08-11T06:34:41.388Z,4.85
2022-08-11T06:37:14.305Z,5.38
2022-08-11T06:40:13.143Z,5.13
2022-08-11T06:42:45.816Z,5.25
2022-08-11T06:45:31.412Z,5.65
2022-08-11T06:48:01.069Z,5.85
2022-08-11T06:50:46.114Z,4.90
2022-08-11T06:53:12.831Z,5.60
2022-08-11T06:55:59.133Z,6.25
2022-08-11T06:58:48.519Z,5.05
2022-08-11T07:01:16.484Z,5.90
2022-08-11T07:04:00.556Z,4.78
2022-08-11T07:06:51.055Z,4.60
2022-08-11T07:09:39.516Z,4.20
2022-08-11T07:12:33.656Z,3.00
2022-08-11T07:15:19.053Z,3.42
2022-08-11T07:17:49.628Z,2.55
2022-08-11T07:20:35.211Z,3.22
2022-08-11T07:23:21.071Z,2.42
2022-08-11T07:26:07.409Z,2.25
2022-08-11T07:28:52.619Z,2.08
2022-08-11T07:31:42.168Z,2.08
2022-08-11T07:34:14.617Z,2.30
2022-08-11T07:36:49.664Z,1.70
2022-08-11T07:39:18.378Z,1.92
2022-08-11T07:41:44.992Z,1.55
2022-08-11T07:44:11.779Z,1.98
2022-08-11T07:47:04.207Z,1.90
2022-08-11T07:49:50.040Z,1.70
2022-08-11T07:52:32.772Z,1.55
2022-08-11T07:55:05.526Z,1.15
2022-08-11T07:58:15.613Z,1.30
2022-08-11T08:01:01.314Z,1.20
2022-08-11T08:03:54.274Z,1.02
2022-08-11T08:06:40.160Z,1.40
2022-08-11T08:09:25.446Z,1.20
2022-08-11T08:12:10.598Z,1.60
2022-08-11T08:14:55.768Z,1.38
2022-08-11T08:17:40.992Z,1.55
2022-08-11T08:20:10.603Z,1.58
2022-08-11T08:22:37.818Z,1.67
2022-08-11T08:25:06.212Z,1.83
2022-08-11T08:27:32.934Z,2.33
2022-08-11T08:30:18.211Z,1.95
2022-08-11T08:32:45.036Z,2.58
2022-08-11T08:35:11.689Z,2.05
2022-08-11T08:37:46.379Z,1.85
2022-08-11T08:40:14.068Z,1.90
2022-08-11T08:42:51.836Z,1.80
2022-08-11T08:45:18.732Z,1.60
2022-08-11T08:48:01.949Z,1.55
2022-08-11T08:50:49.932Z,1.38
2022-08-11T08:53:20.923Z,0.90
2022-08-11T08:55:47.492Z,1.02
2022-08-11T08:58:14.267Z,0.98
2022-08-11T09:00:41.367Z,0.95
2022-08-11T09:03:36.009Z,1.27
2022-08-11T09:05:55.386Z,1.45
2022-08-11T09:08:22.100Z,1.10
2022-08-11T09:11:13.466Z,0.75
2022-08-11T09:13:42.291Z,0.80
2022-08-11T09:16:08.817Z,1.15
2022-08-11T09:18:35.362Z,0.60
2022-08-11T09:21:02.453Z,0.60
2022-08-11T09:24:06.795Z,0.50
2022-08-11T09:26:53.787Z,0.50
2022-08-11T09:29:20.283Z,0.45
2022-08-11T09:31:46.795Z,0.60
2022-08-11T09:34:13.860Z,0.50
2022-08-11T09:36:58.979Z,0.55
2022-08-11T09:39:44.348Z,0.55
2022-08-11T09:42:11.378Z,0.50
2022-08-11T09:44:49.519Z,0.80
2022-08-11T09:47:17.518Z,0.70
2022-08-11T09:49:44.674Z,0.60
2022-08-11T09:52:14.093Z,0.65
2022-08-11T09:54:41.340Z,0.65
2022-08-11T09:57:27.722Z,0.68
2022-08-11T09:59:54.240Z,0.60
2022-08-11T10:02:41.256Z,0.60
2022-08-11T10:05:26.403Z,0.60
2022-08-11T10:07:52.924Z,0.60
2022-08-11T10:10:22.986Z,0.73
2022-08-11T10:12:51.205Z,0.80
2022-08-11T10:15:38.442Z,0.63
2022-08-11T10:18:33.895Z,0.82
2022-08-11T10:21:07.233Z,0.60
2022-08-11T10:24:00.261Z,1.00
2022-08-11T10:26:50.655Z,1.00
2022-08-11T10:29:37.417Z,0.85
2022-08-11T10:32:31.499Z,0.77
2022-08-11T10:34:58.512Z,0.80
2022-08-11T10:37:25.196Z,0.90
2022-08-11T10:40:15.949Z,0.82
2022-08-11T10:43:01.661Z,0.80
2022-08-11T10:45:50.803Z,0.60
2022-08-11T10:48:17.321Z,0.73
2022-08-11T10:51:05.717Z,0.70
2022-08-11T10:53:50.968Z,0.70
2022-08-11T10:56:36.411Z,0.60
2022-08-11T10:59:04.374Z,0.60
2022-08-11T11:01:32.136Z,0.70
2022-08-11T11:03:59.786Z,0.60
2022-08-11T11:06:48.718Z,0.70
2022-08-11T11:09:15.267Z,0.65
2022-08-11T11:12:13.196Z,0.65
2022-08-11T11:14:59.519Z,0.70
2022-08-11T11:17:45.950Z,0.80
2022-08-11T11:20:35.866Z,0.70
2022-08-11T11:23:02.316Z,0.50
2022-08-11T11:25:31.904Z,0.60
2022-08-11T11:28:15.068Z,0.60
2022-08-11T11:31:04.910Z,0.50
2022-08-11T11:33:35.781Z,0.40
2022-08-11T11:36:28.404Z,0.50
2022-08-11T11:38:59.084Z,0.57
2022-08-11T11:41:25.684Z,0.40
2022-08-11T11:43:56.813Z,0.40
2022-08-11T11:46:29.608Z,0.60
2022-08-11T11:48:56.700Z,0.60
2022-08-11T11:51:23.546Z,0.40
2022-08-11T11:53:50.589Z,0.43
2022-08-11T11:56:17.182Z,0.43
2022-08-11T11:59:02.670Z,0.40
2022-08-11T12:01:30.310Z,0.47
2022-08-11T12:03:57.117Z,0.38
2022-08-11T12:06:24.433Z,0.40
2022-08-11T12:08:52.692Z,0.40
2022-08-11T12:11:38.544Z,0.57
2022-08-11T12:14:10.595Z,0.50
2022-08-11T12:16:37.984Z,0.43
2022-08-11T12:19:06.187Z,0.40
2022-08-11T12:21:32.696Z,0.40
2022-08-11T12:24:19.152Z,0.30
2022-08-11T12:26:54.288Z,0.50
2022-08-11T12:29:35.193Z,0.25
2022-08-11T12:32:01.822Z,0.47
2022-08-11T12:34:31.184Z,0.40
2022-08-11T12:36:58.381Z,0.40
2022-08-11T12:40:16.573Z,0.32
2022-08-11T12:42:55.341Z,0.40
2022-08-11T12:45:31.504Z,0.40
2022-08-11T12:49:01.027Z,0.32
2022-08-11T12:51:23.570Z,0.40
2022-08-11T12:53:53.699Z,0.30
2022-08-11T12:56:39.221Z,0.32
2022-08-11T12:59:24.843Z,0.32
2022-08-11T13:02:09.778Z,0.30
2022-08-11T13:04:58.439Z,0.30
2022-08-11T13:07:26.108Z,0.30
2022-08-11T13:09:52.797Z,0.25
2022-08-11T13:12:57.851Z,0.40
2022-08-11T13:15:24.837Z,0.30
2022-08-11T13:17:51.909Z,0.40
2022-08-11T13:20:20.261Z,0.30
2022-08-11T13:22:47.649Z,0.30
2022-08-11T13:25:14.904Z,0.30
2022-08-11T13:27:42.337Z,0.40
2022-08-11T13:30:27.942Z,0.30
2022-08-11T13:32:56.034Z,0.28
2022-08-11T13:35:22.555Z,0.30
2022-08-11T13:38:19.498Z,0.40
2022-08-11T13:40:54.656Z,0.40
2022-08-11T13:43:22.525Z,0.40
2022-08-11T13:45:49.238Z,0.20
2022-08-11T13:48:16.239Z,0.28
2022-08-11T13:51:01.475Z,0.20
2022-08-11T13:53:28.052Z,0.30
2022-08-11T13:55:55.218Z,0.20
2022-08-11T13:58:40.797Z,0.22
2022-08-11T14:01:11.272Z,0.30
2022-08-11T14:04:30.017Z,1.00
2022-08-11T14:06:46.836Z,0.80
2022-08-11T14:09:13.313Z,1.33
2022-08-11T14:12:21.394Z,0.90
2022-08-11T14:14:47.184Z,1.23
2022-08-11T14:17:13.699Z,1.63
2022-08-11T14:20:01.874Z,0.90
2022-08-11T14:22:48.357Z,0.93
2022-08-11T14:25:16.974Z,0.77
2022-08-11T14:28:33.009Z,0.70
2022-08-11T14:30:49.262Z,0.65
2022-08-11T14:33:16.893Z,0.90
2022-08-11T14:35:49.447Z,0.80
2022-08-11T14:38:17.281Z,0.73
2022-08-11T14:41:02.494Z,0.70
2022-08-11T14:44:12.272Z,0.70
2022-08-11T14:46:52.860Z,0.60
2022-08-11T14:49:19.438Z,0.50
2022-08-11T14:51:47.085Z,0.50
2022-08-11T14:54:32.338Z,0.60
2022-08-11T14:57:00.071Z,0.55
2022-08-11T14:59:26.603Z,0.60
2022-08-11T15:02:11.953Z,0.50
2022-08-11T15:04:38.776Z,0.70
2022-08-11T15:07:05.609Z,0.70
2022-08-11T15:10:09.828Z,0.70
2022-08-11T15:12:32.939Z,0.40
2022-08-11T15:15:19.185Z,0.77
2022-08-11T15:17:45.955Z,0.80
2022-08-11T15:20:34.757Z,0.73
2022-08-11T15:23:19.993Z,0.73
2022-08-11T15:25:48.588Z,0.90
2022-08-11T15:28:34.188Z,1.10
2022-08-11T15:31:19.464Z,1.15
2022-08-11T15:34:04.737Z,0.70
2022-08-11T15:36:50.501Z,0.70
2022-08-11T15:40:05.817Z,0.70
2022-08-11T15:42:50.959Z,0.70
2022-08-11T15:45:36.379Z,0.60
2022-08-11T15:48:05.379Z,0.60
2022-08-11T15:50:33.123Z,0.65
2022-08-11T15:53:00.879Z,0.70
2022-08-11T15:55:27.467Z,0.68
2022-08-11T15:58:12.807Z,0.60
2022-08-11T16:01:03.805Z,0.68
2022-08-11T16:04:07.452Z,0.63
2022-08-11T16:06:35.802Z,0.82
2022-08-11T16:09:03.595Z,0.90
2022-08-11T16:11:30.086Z,0.85
2022-08-11T16:14:15.430Z,1.00
2022-08-11T16:16:41.919Z,1.02
2022-08-11T16:19:10.886Z,1.00
2022-08-11T16:21:39.389Z,0.70
2022-08-11T16:27:02.411Z,0.77
2022-08-11T16:27:11.180Z,0.70
2022-08-11T16:29:44.797Z,0.75
2022-08-11T16:32:17.966Z,1.00
2022-08-11T16:35:23.623Z,0.80
2022-08-11T16:38:08.905Z,0.85
2022-08-11T16:40:35.422Z,0.95
2022-08-11T16:43:20.606Z,0.70
2022-08-11T16:46:05.832Z,0.80
2022-08-11T16:48:36.949Z,1.00
2022-08-11T16:51:07.853Z,1.30
2022-08-11T16:53:46.094Z,1.13
2022-08-11T16:56:34.978Z,1.17
2022-08-11T16:59:18.284Z,1.00
2022-08-11T17:01:47.340Z,1.20
2022-08-11T17:04:52.658Z,1.60
2022-08-11T17:07:42.491Z,1.33
2022-08-11T17:10:39.084Z,1.50
2022-08-11T17:13:16.689Z,1.27
2022-08-11T17:16:05.994Z,1.70
2022-08-11T17:18:44.068Z,1.30
2022-08-11T17:21:16.729Z,1.50
2022-08-11T17:23:53.014Z,1.20
2022-08-11T17:26:20.611Z,1.70
2022-08-11T17:28:51.434Z,1.20
2022-08-11T17:31:36.768Z,1.40
2022-08-11T17:34:21.988Z,1.85
2022-08-11T17:36:49.172Z,1.85
2022-08-11T17:39:15.757Z,1.83
2022-08-11T17:42:01.268Z,1.80
2022-08-11T17:44:46.514Z,2.15
2022-08-11T17:47:31.791Z,1.77
2022-08-11T17:50:15.948Z,2.00
2022-08-11T17:53:03.323Z,2.28
2022-08-11T17:55:51.534Z,2.42
2022-08-11T17:58:38.658Z,2.25
2022-08-11T18:01:09.178Z,2.90
2022-08-11T18:03:39.877Z,2.92
2022-08-11T18:06:07.259Z,2.70
2022-08-11T18:08:59.545Z,2.75
2022-08-11T18:12:06.938Z,3.15
2022-08-11T18:14:49.996Z,2.97
2022-08-11T18:17:35.161Z,2.58
2022-08-11T18:20:20.378Z,2.80
2022-08-11T18:23:05.789Z,3.38
2022-08-11T18:25:51.607Z,3.20
2022-08-11T18:28:46.888Z,3.42
2022-08-11T18:31:32.099Z,4.22
2022-08-11T18:34:17.337Z,3.13
2022-08-11T18:37:20.000Z,3.53
2022-08-11T18:40:09.255Z,3.90
2022-08-11T18:42:54.523Z,3.55
2022-08-11T18:45:45.435Z,3.65
2022-08-11T18:48:33.849Z,3.72
2022-08-11T18:51:30.841Z,3.00
2022-08-11T18:54:26.813Z,3.42
2022-08-11T18:57:12.174Z,3.13
2022-08-11T18:59:57.657Z,2.80
2022-08-11T19:02:48.240Z,2.90
2022-08-11T19:06:06.088Z,2.63
2022-08-11T19:08:40.149Z,2.67
2022-08-11T19:11:25.299Z,3.00
2022-08-11T19:14:10.768Z,2.35
2022-08-11T19:16:55.881Z,2.30
2022-08-11T19:19:45.470Z,3.00
2022-08-11T19:22:32.487Z,2.20
2022-08-11T19:25:21.003Z,2.20
2022-08-11T19:28:10.520Z,2.30
2022-08-11T19:30:55.989Z,2.97
2022-08-11T19:34:02.469Z,2.70
2022-08-11T19:36:47.120Z,2.97
2022-08-11T19:39:35.087Z,3.28
2022-08-11T19:42:20.683Z,3.15
2022-08-11T19:45:06.402Z,3.50
2022-08-11T19:48:03.390Z,2.60
2022-08-11T19:50:53.957Z,3.30
2022-08-11T19:53:39.219Z,4.10
2022-08-11T19:56:24.430Z,3.47
2022-08-11T19:59:10.239Z,3.35
2022-08-11T20:02:12.769Z,4.00
2022-08-11T20:04:59.385Z,3.25
2022-08-11T20:07:44.764Z,4.72
2022-08-11T20:10:30.096Z,4.40
2022-08-11T20:13:21.607Z,3.75
2022-08-11T20:16:07.067Z,4.70
2022-08-11T20:18:52.322Z,4.35
2022-08-11T20:21:37.603Z,4.78
2022-08-11T20:24:22.978Z,4.10
2022-08-11T20:27:18.808Z,3.78
2022-08-11T20:30:10.360Z,4.03
2022-08-11T20:32:55.924Z,3.20
2022-08-11T20:35:41.282Z,3.63
2022-08-11T20:38:26.557Z,3.88
2022-08-11T20:41:12.326Z,3.92
2022-08-11T20:44:06.772Z,3.42
2022-08-11T20:46:54.469Z,4.05
2022-08-11T20:49:51.371Z,3.85
2022-08-11T20:52:41.722Z,4.57
2022-08-11T20:55:46.108Z,3.72
2022-08-11T20:59:00.983Z,3.45
2022-08-11T21:01:38.583Z,4.22
2022-08-11T21:04:26.068Z,4.03
2022-08-11T21:07:11.348Z,3.25
2022-08-11T21:10:09.386Z,3.17
2022-08-11T21:12:55.735Z,3.70
2022-08-11T21:16:01.658Z,3.33
2022-08-11T21:18:46.115Z,3.33
2022-08-11T21:21:31.619Z,3.33
2022-08-11T21:24:31.086Z,3.45
2022-08-11T21:27:18.649Z,3.22
2022-08-11T21:30:10.413Z,3.45
2022-08-11T21:32:55.807Z,3.08
2022-08-11T21:35:45.191Z,2.78
2022-08-11T21:38:30.774Z,2.72
2022-08-11T21:41:16.594Z,2.70
2022-08-11T21:44:01.828Z,3.50
2022-08-11T21:46:47.210Z,2.97
2022-08-11T21:49:32.348Z,2.33
2022-08-11T21:52:17.508Z,2.80
2022-08-11T21:55:02.759Z,3.13
2022-08-11T21:57:50.080Z,3.15
2022-08-11T22:00:35.835Z,2.97
2022-08-11T22:03:20.922Z,2.50
2022-08-11T22:06:06.297Z,2.88
2022-08-11T22:08:51.351Z,3.33
2022-08-11T22:11:38.175Z,2.97
2022-08-11T22:14:23.567Z,3.22
2022-08-11T22:17:08.708Z,4.10
2022-08-11T22:19:54.971Z,3.17
2022-08-11T22:22:51.204Z,3.35
2022-08-11T22:25:38.970Z,3.08
2022-08-11T22:28:24.466Z,3.05
2022-08-11T22:31:09.579Z,3.20
2022-08-11T22:34:02.676Z,3.25
2022-08-11T22:36:48.348Z,3.47
2022-08-11T22:39:35.267Z,3.90
2022-08-11T22:42:24.169Z,4.07
2022-08-11T22:45:19.307Z,3.60
2022-08-11T22:48:04.625Z,3.85
2022-08-11T22:50:49.813Z,4.03
2022-08-11T22:53:55.242Z,4.13
2022-08-11T22:56:40.188Z,4.00
2022-08-11T22:59:25.772Z,3.75
2022-08-11T23:02:10.900Z,3.55
2022-08-11T23:04:56.440Z,3.67
2022-08-11T23:07:49.697Z,3.45
2022-08-11T23:10:35.923Z,4.38
2022-08-11T23:13:22.175Z,3.83
2022-08-11T23:16:07.395Z,3.60
2022-08-11T23:18:52.509Z,3.97
2022-08-11T23:21:38.077Z,3.47
2022-08-11T23:24:23.487Z,4.38
2022-08-11T23:27:08.703Z,4.40
2022-08-11T23:29:54.285Z,5.13
2022-08-11T23:32:39.751Z,6.53
2022-08-11T23:35:39.298Z,5.80
2022-08-11T23:38:25.828Z,4.90
2022-08-11T23:41:11.121Z,4.53
2022-08-11T23:43:56.487Z,5.20
2022-08-11T23:46:42.155Z,5.65
2022-08-11T23:49:27.385Z,4.38
2022-08-11T23:52:13.011Z,4.40
2022-08-11T23:54:58.175Z,4.30
2022-08-11T23:57:47.924Z,3.70
